Time;durP1;ratioP1;P1;durP2;ratioP2;P2;SDS_P1;SDS_P2;PMS_P1;PMS_P2;Temp;Humidity;BMP_temperature;BMP_pressure;BME280_temperature;BME280_humidity;BME280_pressure;Samples;Min_cycle;Max_cycle;Signal;HPM_P1;HPM_P2
2022/01/16 00:00:40;;;;;;;2.60;2.50;;;;;;;1.01;100.00;101844.03;4443567;32;20105;-74
2022/01/16 00:05:51;;;;;;;3.85;3.67;;;;;;;1.31;100.00;101912.31;4442603;32;20094;-71
2022/01/16 00:08:16;;;;;;;2.55;2.45;;;;;;;1.36;100.00;101939.94;4408138;32;20091;-73
2022/01/16 00:10:42;;;;;;;15.40;14.52;;;;;;;1.35;100.00;101935.59;4407129;32;20088;-74
2022/01/16 00:13:07;;;;;;;3.00;2.90;;;;;;;1.37;100.00;101946.81;4351500;32;21187;-74
2022/01/16 00:15:33;;;;;;;2.87;2.78;;;;;;;1.41;100.00;101939.94;4411677;32;20084;-74
2022/01/16 00:20:29;;;;;;;2.60;2.50;;;;;;;1.45;100.00;101926.16;4431076;32;20523;-72
2022/01/16 00:22:55;;;;;;;5.15;4.85;;;;;;;0.80;100.00;101818.91;4421572;32;20241;-73
2022/01/16 00:25:20;;;;;;;2.50;2.40;;;;;;;1.44;100.00;101937.34;4440723;32;20084;-72
2022/01/16 00:27:46;;;;;;;2.70;2.60;;;;;;;0.77;100.00;101808.59;4414708;32;20161;-72
2022/01/16 00:30:11;;;;;;;3.47;3.28;;;;;;;1.30;100.00;101898.47;4414648;32;20671;-74
2022/01/16 00:32:36;;;;;;;2.87;2.78;;;;;;;1.53;100.00;101929.66;4437788;32;20090;-74
2022/01/16 00:35:02;;;;;;;4.10;3.90;;;;;;;1.53;100.00;101924.47;4421132;32;20086;-74
2022/01/16 00:37:27;;;;;;;2.60;2.50;;;;;;;1.20;100.00;101883.78;4439676;32;20187;-74
2022/01/16 00:39:53;;;;;;;4.12;3.92;;;;;;;1.56;100.00;101937.44;4421586;32;20083;-74
2022/01/16 00:42:18;;;;;;;3.10;3.00;;;;;;;1.54;100.00;101962.44;4422393;32;20566;-72
2022/01/16 00:44:43;;;;;;;2.70;2.60;;;;;;;1.48;100.00;101908.06;4410459;32;20056;-71
2022/01/16 00:47:09;;;;;;;3.33;3.22;;;;;;;0.62;100.00;101778.31;4410133;32;20348;-74
2022/01/16 00:49:39;;;;;;;2.60;2.50;;;;;;;1.56;100.00;101950.38;4423655;32;20336;-74
2022/01/16 00:52:08;;;;;;;4.75;4.55;;;;;;;1.44;100.00;101934.75;4421324;32;20156;-72
2022/01/16 00:54:33;;;;;;;3.22;3.12;;;;;;;1.05;100.00;101863.87;4407792;32;20211;-71
2022/01/16 00:56:58;;;;;;;3.87;3.58;;;;;;;1.33;100.00;101911.44;4418421;32;20531;-73
2022/01/16 00:59:24;;;;;;;2.80;2.70;;;;;;;1.62;100.00;101951.25;4424506;32;20516;-74
2022/01/16 01:01:49;;;;;;;3.12;3.03;;;;;;;1.15;100.00;101862.22;4424867;32;20064;-72
2022/01/16 01:04:15;;;;;;;3.33;3.03;;;;;;;1.65;100.00;101930.59;4422094;32;20738;-73
2022/01/16 01:06:40;;;;;;;2.70;2.60;;;;;;;1.32;100.00;101898.50;4420455;32;20074;-73
2022/01/16 01:09:05;;;;;;;4.28;4.07;;;;;;;1.69;100.00;101947.84;4428246;32;20088;-72
2022/01/16 01:11:31;;;;;;;2.80;2.70;;;;;;;1.70;100.00;101954.75;4412724;32;20076;-74
2022/01/16 01:16:49;;;;;;;2.72;2.62;;;;;;;1.12;100.00;101855.31;4433185;32;20072;-72
2022/01/16 01:19:15;;;;;;;2.85;2.75;;;;;;;1.71;100.00;101938.37;4416592;32;20567;-73
2022/01/16 01:21:40;;;;;;;2.80;2.70;;;;;;;1.70;100.00;101939.22;4418445;32;20503;-72
2022/01/16 01:24:06;;;;;;;4.05;3.85;;;;;;;1.39;100.00;101911.47;4424413;32;20236;-72
2022/01/16 01:26:36;;;;;;;2.92;2.83;;;;;;;1.36;100.00;101911.47;4423166;32;20077;-72
2022/01/16 01:29:02;;;;;;;5.45;5.15;;;;;;;1.72;100.00;101964.22;4421978;32;20248;-73
2022/01/16 01:31:29;;;;;;;2.60;2.50;;;;;;;1.35;100.00;101903.69;4422933;32;20598;-74
2022/01/16 01:33:55;;;;;;;4.22;4.03;;;;;;;1.32;100.00;101859.69;4428062;32;20531;-74
2022/01/16 01:36:20;;;;;;;2.90;2.80;;;;;;;1.70;100.00;101896.09;4434817;32;20403;-73
2022/01/16 01:38:45;;;;;;;2.65;2.55;;;;;;;1.70;100.00;101885.72;4430417;32;20076;-73
2022/01/16 01:41:11;;;;;;;3.10;3.00;;;;;;;1.63;100.00;101865.03;4437997;32;20120;-73
2022/01/16 01:51:32;;;;;;;3.00;2.90;;;;;;;1.25;100.00;101855.38;4444536;32;20608;-73
2022/01/16 01:53:57;;;;;;;4.00;3.83;;;;;;;1.61;100.00;101947.81;4445989;32;20183;-73
2022/01/16 01:56:23;;;;;;;2.75;2.65;;;;;;;1.62;100.00;101966.78;4426199;32;20063;-73
2022/01/16 01:58:50;;;;;;;4.05;3.08;;;;;;;1.63;100.00;101965.94;4425589;32;20083;-75
2022/01/16 02:01:15;;;;;;;2.80;2.70;;;;;;;1.53;100.00;101957.25;4427896;32;20075;-74
2022/01/16 02:06:10;;;;;;;3.25;3.15;;;;;;;1.68;100.00;101987.50;4435524;32;20278;-73
2022/01/16 02:08:36;;;;;;;2.65;2.55;;;;;;;1.55;100.00;101952.97;4440027;32;20624;-72
2022/01/16 02:11:02;;;;;;;5.28;5.00;;;;;;;1.70;100.00;101975.44;4435514;32;20078;-73
2022/01/16 02:13:32;;;;;;;3.28;3.17;;;;;;;1.69;100.00;101978.91;4434386;31;20110;-73
2022/01/16 02:31:57;;;;;;;2.78;2.67;;;;;;;1.70;100.00;101978.87;4422395;32;20690;-74
2022/01/16 02:34:32;;;;;;;2.78;2.67;;;;;;;1.70;100.00;101967.69;4417284;32;20973;-73
2022/01/16 02:37:01;;;;;;;4.43;4.22;;;;;;;1.54;100.00;101946.94;4409684;32;20060;-73
2022/01/16 02:39:28;;;;;;;3.03;2.92;;;;;;;1.70;100.00;101967.69;4411372;32;20080;-73
2022/01/16 02:41:54;;;;;;;4.80;4.43;;;;;;;1.69;100.00;101966.81;4413734;32;20061;-73
2022/01/16 02:44:29;;;;;;;3.20;3.10;;;;;;;1.71;100.00;101959.06;4409403;32;20164;-73
2022/01/16 02:46:57;;;;;;;4.25;4.05;;;;;;;1.72;100.00;101942.66;4403214;32;20092;-74
2022/01/16 02:49:22;;;;;;;3.20;3.10;;;;;;;1.70;100.00;101929.72;4411915;32;20637;-73
2022/01/16 02:51:49;;;;;;;3.25;3.15;;;;;;;1.34;100.00;101873.50;4434365;32;20142;-73
2022/01/16 02:54:14;;;;;;;3.45;3.15;;;;;;;1.69;100.00;101919.38;4401340;32;20333;-74
2022/01/16 02:56:40;;;;;;;2.90;2.80;;;;;;;1.73;100.00;101910.78;4419712;32;20553;-73
2022/01/16 02:59:07;;;;;;;4.60;4.40;;;;;;;1.70;100.00;101909.03;4395507;32;20086;-72
2022/01/16 03:01:33;;;;;;;2.70;2.60;;;;;;;1.69;100.00;101893.50;4396795;32;20458;-73
2022/01/16 03:03:58;;;;;;;4.80;4.57;;;;;;;1.37;100.00;101855.44;4408194;32;20055;-73
2022/01/16 03:06:27;;;;;;;2.80;2.70;;;;;;;1.70;100.00;101903.00;4410288;32;20087;-73
2022/01/16 03:08:53;;;;;;;3.25;3.15;;;;;;;1.70;100.00;101900.41;4407843;32;20165;-73
2022/01/16 03:13:47;;;;;;;3.50;3.30;;;;;;;1.62;100.00;101871.91;4427104;32;20610;-73
2022/01/16 03:16:16;;;;;;;3.37;3.17;;;;;;;1.71;100.00;101895.25;4405043;32;20072;-74
2022/01/16 03:24:10;;;;;;;3.30;3.10;;;;;;;1.66;100.00;101904.69;4415383;32;20475;-73
2022/01/16 03:26:35;;;;;;;2.70;2.60;;;;;;;1.69;100.00;101898.69;4413438;32;20092;-74
2022/01/16 03:29:00;;;;;;;4.55;4.35;;;;;;;1.64;100.00;101900.38;4412071;32;20613;-73
2022/01/16 03:31:26;;;;;;;2.90;2.80;;;;;;;1.64;100.00;101888.28;4407554;32;20080;-73
2022/01/16 03:33:51;;;;;;;4.62;4.25;;;;;;;1.57;100.00;101873.63;4398149;32;20080;-73
2022/01/16 03:36:17;;;;;;;4.80;4.07;;;;;;;1.55;100.00;101875.34;4398700;32;20555;-73
2022/01/16 03:38:42;;;;;;;3.10;3.00;;;;;;;1.57;100.00;101878.78;4420847;32;20088;-73
2022/01/16 03:41:08;;;;;;;4.57;4.37;;;;;;;1.52;100.00;101860.66;4422547;32;20091;-73
2022/01/16 03:43:33;;;;;;;2.92;2.83;;;;;;;1.63;100.00;101896.06;4418298;32;20395;-73
2022/01/16 03:46:00;;;;;;;4.25;4.05;;;;;;;1.54;100.00;101871.91;4406912;32;20189;-73
2022/01/16 03:48:25;;;;;;;3.42;3.33;;;;;;;1.63;100.00;101891.75;4402162;32;20207;-73
2022/01/16 03:50:50;;;;;;;5.05;4.78;;;;;;;1.58;100.00;101872.75;4419300;32;20069;-74
2022/01/16 03:53:17;;;;;;;2.90;2.80;;;;;;;1.61;100.00;101884.84;4444080;32;20098;-74
2022/01/16 03:55:42;;;;;;;3.15;3.05;;;;;;;1.63;100.00;101890.91;4430101;32;20085;-72
2022/01/16 03:58:07;;;;;;;3.55;3.45;;;;;;;1.59;100.00;101888.28;4402318;32;21077;-74
2022/01/16 04:00:33;;;;;;;2.92;2.80;;;;;;;1.61;100.00;101877.94;4416412;32;20057;-73
2022/01/16 04:02:58;;;;;;;4.35;4.15;;;;;;;1.63;100.00;101877.97;4415140;32;20288;-73
2022/01/16 04:05:23;;;;;;;3.55;3.45;;;;;;;1.65;100.00;101881.41;4420989;32;20069;-73
2022/01/16 04:07:49;;;;;;;3.78;3.58;;;;;;;1.62;100.00;101877.06;4420142;32;20079;-73
2022/01/16 04:10:14;;;;;;;2.75;2.65;;;;;;;1.60;100.00;101876.22;4419896;32;20200;-72
2022/01/16 04:12:40;;;;;;;2.85;2.75;;;;;;;1.56;100.00;101908.09;4413625;32;20578;-72
2022/01/16 04:17:36;;;;;;;3.50;3.20;;;;;;;1.65;100.00;101881.41;4431619;32;20629;-72
2022/01/16 04:20:02;;;;;;;4.82;4.40;;;;;;;0.34;100.00;101661.97;4416418;32;20087;-72
2022/01/16 04:22:27;;;;;;;3.47;3.08;;;;;;;1.66;100.00;101876.22;4425627;32;20072;-74
2022/01/16 04:24:53;;;;;;;3.78;3.62;;;;;;;1.68;100.00;101886.59;4419476;32;20065;-72
2022/01/16 04:27:18;;;;;;;3.10;3.00;;;;;;;0.47;100.00;101690.44;4424645;32;20094;-73
2022/01/16 04:29:43;;;;;;;4.00;3.70;;;;;;;1.68;100.00;101900.38;4427338;32;20065;-73
2022/01/16 04:32:09;;;;;;;2.90;2.80;;;;;;;1.69;100.00;101898.69;4425355;32;20576;-73
2022/01/16 04:34:35;;;;;;;2.65;2.55;;;;;;;1.22;100.00;101814.84;4426862;32;20092;-74
2022/01/16 04:37:00;;;;;;;4.47;4.28;;;;;;;1.69;100.00;101894.37;4420374;32;20483;-73
2022/01/16 04:39:32;;;;;;;3.37;3.17;;;;;;;1.70;100.00;101896.09;4422492;32;20076;-73
2022/01/16 04:44:42;;;;;;;3.80;3.12;;;;;;;1.73;100.00;101906.47;4439748;32;20365;-73
2022/01/16 04:47:07;;;;;;;3.75;3.55;;;;;;;1.71;100.00;101892.66;4401574;32;20261;-73
2022/01/16 04:49:32;;;;;;;2.80;2.70;;;;;;;1.19;100.00;101807.94;4423872;32;20464;-74
2022/01/16 04:51:58;;;;;;;4.45;4.25;;;;;;;1.78;100.00;101906.47;4434726;32;20104;-73
2022/01/16 04:54:24;;;;;;;2.80;2.70;;;;;;;1.48;100.00;101847.72;4426268;32;20084;-72
2022/01/16 04:56:51;;;;;;;4.47;4.28;;;;;;;1.82;100.00;101913.38;4416620;32;20068;-75
2022/01/16 04:59:16;;;;;;;2.72;2.62;;;;;;;1.84;100.00;101903.03;4446532;32;20433;-72
2022/01/16 05:01:41;;;;;;;2.87;2.78;;;;;;;1.85;100.00;101910.81;4424097;32;20091;-73
2022/01/16 05:04:07;;;;;;;3.50;3.40;;;;;;;1.87;100.00;101906.50;4419496;32;20076;-73
2022/01/16 05:06:32;;;;;;;3.75;3.47;;;;;;;1.86;100.00;101898.72;4417731;32;20084;-73
2022/01/16 05:08:57;;;;;;;4.87;4.68;;;;;;;1.87;100.00;101884.94;4420455;32;20091;-73
2022/01/16 05:11:26;;;;;;;3.20;3.10;;;;;;;1.91;100.00;101897.03;4417999;32;20330;-73
2022/01/16 05:19:06;;;;;;;5.00;4.80;;;;;;;1.90;100.00;101883.19;4432363;32;20348;-73
2022/01/16 05:21:31;;;;;;;14.73;4.95;;;;;;;1.91;100.00;101884.94;4422335;32;20084;-73
2022/01/16 05:23:57;;;;;;;4.20;4.00;;;;;;;1.90;100.00;101875.44;4412474;32;20578;-73
2022/01/16 05:26:27;;;;;;;3.35;3.25;;;;;;;1.92;100.00;101878.03;4412429;32;20227;-72
2022/01/16 05:28:56;;;;;;;2.90;2.70;;;;;;;0.95;100.00;101722.53;4424070;32;20090;-72
2022/01/16 05:31:22;;;;;;;3.22;3.10;;;;;;;1.54;100.00;101825.34;4428389;32;20495;-73
2022/01/16 05:33:48;;;;;;;2.90;2.80;;;;;;;1.89;100.00;101885.81;4427686;32;20084;-73
2022/01/16 05:36:13;;;;;;;3.40;3.30;;;;;;;1.89;100.00;101881.50;4411934;32;20080;-73
2022/01/16 05:38:39;;;;;;;3.15;3.05;;;;;;;0.00;100.00;101552.53;4423734;32;20457;-72
2022/01/16 05:41:04;;;;;;;2.70;2.60;;;;;;;1.77;100.00;101848.66;4424338;32;20328;-73
2022/01/16 05:43:29;;;;;;;3.25;3.15;;;;;;;1.91;100.00;101877.19;4426583;32;20130;-73
2022/01/16 05:45:55;;;;;;;4.35;4.15;;;;;;;1.92;100.00;101878.91;4418768;32;20476;-72
2022/01/16 05:48:20;;;;;;;4.28;4.00;;;;;;;1.91;100.00;101884.09;4405476;32;20061;-73
2022/01/16 05:50:45;;;;;;;3.40;3.10;;;;;;;1.90;100.00;101890.13;4420109;32;20100;-73
2022/01/16 05:53:11;;;;;;;5.57;3.35;;;;;;;1.97;100.00;101897.06;4407389;32;20071;-74
2022/01/16 05:55:36;;;;;;;6.78;3.67;;;;;;;1.83;100.00;101870.25;4412281;32;20127;-74
2022/01/16 05:58:11;;;;;;;4.18;3.97;;;;;;;1.89;100.00;101881.50;4399088;32;20081;-73
2022/01/16 06:00:37;;;;;;;4.03;3.83;;;;;;;1.87;100.00;101869.41;4424602;32;20144;-73
2022/01/16 06:03:03;;;;;;;4.87;4.68;;;;;;;1.93;100.00;101877.19;4416447;32;20141;-73
2022/01/16 06:05:28;;;;;;;3.10;3.00;;;;;;;1.95;100.00;101883.25;4417949;32;20080;-74
2022/01/16 06:08:07;;;;;;;3.97;3.67;;;;;;;2.02;100.00;101891.88;4416654;32;20065;-73
2022/01/16 06:10:32;;;;;;;4.05;3.85;;;;;;;2.02;100.00;101891.88;4417807;32;20870;-74
2022/01/16 06:12:58;;;;;;;4.62;4.43;;;;;;;2.03;100.00;101880.69;4419245;32;20247;-74
2022/01/16 06:15:23;;;;;;;3.10;3.00;;;;;;;1.94;100.00;101864.22;4409827;32;20114;-72
2022/01/16 06:17:49;;;;;;;3.10;3.00;;;;;;;1.98;100.00;101866.00;4421314;32;20068;-74
2022/01/16 06:20:15;;;;;;;4.75;4.45;;;;;;;2.05;100.00;101877.22;4410036;32;20076;-74
2022/01/16 06:22:41;;;;;;;3.55;3.35;;;;;;;2.07;100.00;101880.69;4420068;32;20084;-72
2022/01/16 06:25:07;;;;;;;4.87;4.65;;;;;;;2.08;100.00;101876.34;4420095;32;20392;-74
2022/01/16 06:27:32;;;;;;;3.53;3.12;;;;;;;2.08;100.00;101874.63;4419136;32;20126;-73
2022/01/16 06:29:57;;;;;;;4.25;4.05;;;;;;;2.09;100.00;101878.09;4422500;32;20138;-74
2022/01/16 06:32:23;;;;;;;3.10;2.90;;;;;;;1.99;100.00;101869.44;4423994;32;20382;-72
2022/01/16 06:34:48;;;;;;;3.35;3.25;;;;;;;2.12;100.00;101894.47;4421334;32;20072;-73
2022/01/16 06:37:13;;;;;;;3.42;3.33;;;;;;;1.63;100.00;101810.69;4422844;32;20723;-73
2022/01/16 06:39:39;;;;;;;2.90;2.80;;;;;;;2.13;100.00;101906.56;4423920;32;20064;-74
2022/01/16 06:42:05;;;;;;;4.37;4.18;;;;;;;2.13;100.00;101906.56;4420783;32;20542;-72
2022/01/16 06:44:30;;;;;;;3.55;3.35;;;;;;;2.14;100.00;101908.28;4433245;32;20079;-74
2022/01/16 06:46:55;;;;;;;5.30;5.10;;;;;;;2.17;100.00;101912.63;4415686;32;20562;-73
2022/01/16 06:49:21;;;;;;;2.95;2.80;;;;;;;1.62;100.00;101824.47;4417776;32;20084;-73
2022/01/16 06:51:46;;;;;;;4.35;4.05;;;;;;;1.79;100.00;101851.28;4438678;32;20076;-73
2022/01/16 06:54:11;;;;;;;2.90;2.80;;;;;;;2.02;100.00;101879.78;4420701;32;20478;-73
2022/01/16 06:56:37;;;;;;;2.92;2.83;;;;;;;2.16;100.00;101903.97;4419465;32;20164;-73
2022/01/16 06:59:02;;;;;;;4.45;4.25;;;;;;;2.18;100.00;101906.56;4419435;32;20071;-73
2022/01/16 07:01:28;;;;;;;2.80;2.70;;;;;;;2.11;100.00;101891.91;4423099;32;20068;-73
2022/01/16 07:03:54;;;;;;;4.30;4.10;;;;;;;2.17;100.00;101907.47;4422561;32;20130;-74
2022/01/16 07:06:20;;;;;;;3.00;2.90;;;;;;;1.63;100.00;101813.28;4419296;32;20486;-73
2022/01/16 07:08:45;;;;;;;3.75;3.47;;;;;;;2.19;100.00;101911.78;4424520;32;20061;-74
2022/01/16 07:11:11;;;;;;;2.87;2.78;;;;;;;2.07;100.00;101880.69;4417661;32;20152;-73
2022/01/16 07:13:36;;;;;;;2.85;2.75;;;;;;;2.22;100.00;101916.09;4418317;32;20289;-73
2022/01/16 07:16:01;;;;;;;4.50;4.30;;;;;;;2.20;100.00;101912.63;4422447;32;20088;-73
2022/01/16 07:18:28;;;;;;;2.70;2.60;;;;;;;2.26;100.00;101932.50;4423375;32;20068;-74
2022/01/16 07:20:53;;;;;;;4.40;4.20;;;;;;;2.28;100.00;101933.38;4419940;32;20086;-74
2022/01/16 07:23:18;;;;;;;5.53;3.60;;;;;;;1.57;100.00;101811.53;4419945;32;20072;-74
2022/01/16 07:25:44;;;;;;;3.58;3.37;;;;;;;2.21;100.00;101924.72;4419450;32;20884;-73
2022/01/16 07:28:09;;;;;;;2.90;2.80;;;;;;;2.33;100.00;101942.88;4416757;32;20555;-74
2022/01/16 07:30:36;;;;;;;3.03;2.92;;;;;;;2.06;100.00;101893.59;4422627;32;20107;-73
2022/01/16 07:33:04;;;;;;;4.93;4.72;;;;;;;1.59;100.00;101821.03;4418972;32;20127;-73
2022/01/16 07:35:30;;;;;;;4.18;3.90;;;;;;;2.39;100.00;101945.47;4424512;32;20149;-74
2022/01/16 07:37:55;;;;;;;4.47;4.28;;;;;;;2.35;100.00;101943.75;4417562;32;20633;-73
2022/01/16 07:40:21;;;;;;;4.55;4.35;;;;;;;1.73;100.00;101841.75;4419209;32;20569;-72
2022/01/16 07:42:47;;;;;;;3.12;2.97;;;;;;;2.48;100.00;101960.16;4419740;32;20153;-74
2022/01/16 07:45:12;;;;;;;3.05;2.85;;;;;;;2.52;100.00;101953.28;4422352;32;20257;-73
2022/01/16 07:47:38;;;;;;;3.78;3.58;;;;;;;2.11;100.00;101879.81;4418086;32;20089;-73
2022/01/16 07:50:03;;;;;;;5.65;5.35;;;;;;;2.19;100.00;101900.56;4422411;32;20136;-72
2022/01/16 07:52:29;;;;;;;2.80;2.70;;;;;;;2.57;100.00;101961.94;4434620;32;20069;-70
2022/01/16 07:54:54;;;;;;;4.57;4.37;;;;;;;2.58;100.00;101966.22;4415124;32;20115;-73
2022/01/16 07:57:20;;;;;;;2.83;2.72;;;;;;;2.55;100.00;101953.28;4450213;32;20841;-72
2022/01/16 07:59:45;;;;;;;3.45;3.35;;;;;;;2.64;100.00;101974.00;4420941;32;20137;-71
2022/01/16 08:02:10;;;;;;;3.08;2.97;;;;;;;2.63;100.00;101995.63;4420322;32;20165;-72
2022/01/16 08:04:36;;;;;;;4.75;4.45;;;;;;;2.64;100.00;101974.00;4418173;32;20091;-72
2022/01/16 08:07:03;;;;;;;6.15;5.72;;;;;;;2.69;100.00;101974.91;4418766;32;21916;-74
2022/01/16 08:09:29;;;;;;;4.37;3.87;;;;;;;2.71;100.00;101967.12;4420531;32;20982;-71
2022/01/16 08:11:54;;;;;;;4.85;4.65;;;;;;;2.71;100.00;101965.41;4428415;32;20137;-73
2022/01/16 08:14:19;;;;;;;3.45;3.35;;;;;;;2.53;100.00;101945.50;4420989;32;20072;-72
2022/01/16 08:16:45;;;;;;;7.22;3.78;;;;;;;2.77;100.00;101975.75;4417573;32;20976;-70
2022/01/16 08:19:10;;;;;;;3.92;3.58;;;;;;;2.82;100.00;101974.91;4416880;32;20811;-70
2022/01/16 08:21:35;;;;;;;3.53;3.33;;;;;;;2.79;99.65;101971.44;4417268;32;20145;-72
2022/01/16 08:24:04;;;;;;;4.65;4.45;;;;;;;2.82;99.38;101964.53;4417939;32;20562;-72
2022/01/16 08:26:31;;;;;;;4.28;4.00;;;;;;;2.82;99.54;101961.94;4424066;32;20084;-73
2022/01/16 08:28:56;;;;;;;4.35;4.15;;;;;;;2.85;99.69;101964.53;4419656;32;20386;-73
2022/01/16 08:31:23;;;;;;;3.62;3.42;;;;;;;1.91;99.61;101815.06;4415645;32;20080;-72
2022/01/16 08:33:48;;;;;;;3.35;3.25;;;;;;;2.82;99.55;101956.75;4420836;32;20108;-72
2022/01/16 08:36:13;;;;;;;3.05;2.95;;;;;;;2.89;99.54;101976.66;4418652;32;20080;-72
2022/01/16 08:38:39;;;;;;;4.30;3.92;;;;;;;2.84;99.53;101970.59;4425396;32;20476;-74
2022/01/16 08:41:04;;;;;;;5.32;5.10;;;;;;;2.88;100.00;101980.09;4418446;32;20068;-73
2022/01/16 08:43:30;;;;;;;3.72;3.55;;;;;;;2.90;99.41;101984.41;4424248;32;20103;-72
2022/01/16 08:45:56;;;;;;;5.15;4.75;;;;;;;2.94;99.38;101990.47;4435854;32;20532;-72
2022/01/16 08:48:21;;;;;;;3.62;3.40;;;;;;;2.96;99.07;101992.19;4421761;32;20397;-72
2022/01/16 08:50:47;;;;;;;3.33;3.20;;;;;;;2.98;99.16;101987.84;4438047;32;20099;-71
2022/01/16 08:53:12;;;;;;;3.17;3.08;;;;;;;3.00;99.11;101991.31;4422016;32;20388;-72
2022/01/16 08:55:38;;;;;;;2.95;2.85;;;;;;;3.05;98.79;102001.72;4422554;32;20080;-73
2022/01/16 08:58:03;;;;;;;4.62;4.43;;;;;;;3.06;98.69;102010.34;4424891;32;20112;-72
2022/01/16 09:00:29;;;;;;;3.00;2.90;;;;;;;2.60;98.40;101941.19;4422441;32;20609;-71
2022/01/16 09:02:54;;;;;;;4.95;4.75;;;;;;;3.07;98.09;102017.28;4418893;32;20139;-74
2022/01/16 09:05:19;;;;;;;3.40;3.30;;;;;;;3.11;98.15;102017.28;4419233;32;20149;-72
2022/01/16 09:07:45;;;;;;;4.15;3.95;;;;;;;3.13;97.38;102020.72;4421208;32;20076;-71
2022/01/16 09:10:10;;;;;;;3.95;3.75;;;;;;;3.11;96.83;102019.87;4424528;32;20111;-72
2022/01/16 09:12:36;;;;;;;7.05;3.53;;;;;;;2.27;96.52;101869.50;4423171;32;20088;-72
2022/01/16 09:15:05;;;;;;;4.72;4.50;;;;;;;3.17;96.18;102013.81;4416100;32;20077;-73
2022/01/16 09:17:30;;;;;;;3.10;3.00;;;;;;;3.22;96.12;102012.06;4418874;32;20082;-74
2022/01/16 09:19:55;;;;;;;4.90;4.70;;;;;;;2.99;95.66;101961.06;4421171;32;20475;-75
2022/01/16 09:22:21;;;;;;;4.25;4.05;;;;;;;2.82;95.85;101936.00;4423706;32;20162;-73
2022/01/16 09:24:46;;;;;;;3.40;3.20;;;;;;;3.20;95.44;102006.87;4424920;32;20095;-74
2022/01/16 09:27:12;;;;;;;3.10;3.00;;;;;;;2.15;94.46;101834.09;4423459;32;20879;-74
2022/01/16 09:29:37;;;;;;;2.87;2.78;;;;;;;3.32;94.30;102038.88;4434621;32;20091;-74
2022/01/16 09:32:04;;;;;;;4.57;4.37;;;;;;;2.64;94.24;101906.62;4422999;32;20064;-74
2022/01/16 09:34:30;;;;;;;3.05;2.95;;;;;;;3.26;93.93;102021.56;4438843;32;20075;-74
2022/01/16 09:36:55;;;;;;;4.87;4.68;;;;;;;2.79;93.82;101932.56;4418447;32;20064;-74
2022/01/16 09:39:21;;;;;;;3.22;3.08;;;;;;;3.31;93.85;102003.44;4427691;32;20856;-74
2022/01/16 09:41:46;;;;;;;3.42;3.33;;;;;;;2.43;93.70;101853.09;4424239;32;20172;-76
2022/01/16 09:44:11;;;;;;;2.90;2.80;;;;;;;3.01;93.06;101950.72;4422226;32;20964;-75
2022/01/16 09:46:37;;;;;;;3.55;3.45;;;;;;;2.97;92.79;101944.66;4427537;32;20083;-74
2022/01/16 09:49:03;;;;;;;4.93;4.72;;;;;;;3.54;92.97;102037.97;4422675;32;20102;-76
2022/01/16 09:51:29;;;;;;;3.22;3.12;;;;;;;3.65;92.68;102043.19;4426534;32;20083;-76
2022/01/16 09:53:55;;;;;;;4.37;4.18;;;;;;;3.22;92.06;101967.09;4422702;32;20071;-76
2022/01/16 09:56:20;;;;;;;3.80;3.60;;;;;;;2.54;91.56;101876.41;4421233;32;20076;-74
2022/01/16 09:58:45;;;;;;;3.40;3.28;;;;;;;3.78;91.80;102050.03;4427830;32;20092;-75
2022/01/16 10:01:11;;;;;;;3.17;3.08;;;;;;;3.87;91.84;102051.78;4421270;32;20067;-76
2022/01/16 10:03:36;;;;;;;3.10;2.97;;;;;;;3.95;91.80;102057.81;4439161;32;20273;-76
2022/01/16 10:06:13;;;;;;;4.25;4.05;;;;;;;3.75;91.96;102023.25;4441155;32;20094;-74
2022/01/16 10:08:39;;;;;;;3.10;3.00;;;;;;;3.99;92.32;102056.06;4437469;32;20065;-76
2022/01/16 10:11:35;;;;;;;4.47;4.28;;;;;;;3.98;91.74;102062.97;4420479;32;20052;-75
2022/01/16 10:14:08;;;;;;;4.45;4.25;;;;;;;3.73;92.36;102044.03;4436458;32;20055;-76
2022/01/16 10:16:36;;;;;;;3.30;3.20;;;;;;;3.91;92.44;102057.81;4421608;32;20092;-73
2022/01/16 10:19:01;;;;;;;3.50;3.35;;;;;;;3.59;93.44;102001.66;4425720;32;20075;-74
2022/01/16 10:21:32;;;;;;;5.85;4.12;;;;;;;3.62;92.99;102006.81;4424166;32;20121;-73
2022/01/16 10:23:57;;;;;;;5.80;5.40;;;;;;;3.17;92.84;101923.88;4430731;32;20087;-72
2022/01/16 10:26:22;;;;;;;3.12;3.03;;;;;;;4.08;93.64;102068.16;4426187;32;20982;-75
2022/01/16 10:28:49;;;;;;;3.17;3.08;;;;;;;4.07;92.96;102064.72;4417780;32;20206;-73
2022/01/16 10:31:18;;;;;;;3.30;3.20;;;;;;;4.13;92.81;102062.09;4418971;32;20328;-75
2022/01/16 10:33:43;;;;;;;3.90;3.60;;;;;;;4.22;92.72;102061.19;4432750;32;20072;-74
2022/01/16 10:36:08;;;;;;;4.68;4.47;;;;;;;4.25;92.53;102068.97;4420922;32;20099;-76
2022/01/16 10:38:34;;;;;;;3.05;2.95;;;;;;;4.11;92.95;102036.97;4428032;32;20072;-75
2022/01/16 10:40:59;;;;;;;5.85;5.40;;;;;;;4.32;92.48;102059.41;4423429;32;20575;-75
2022/01/16 10:43:38;;;;;;;3.15;3.05;;;;;;;4.24;92.22;102043.84;4423073;32;20087;-73
2022/01/16 10:46:03;;;;;;;4.57;4.37;;;;;;;3.98;92.71;101997.19;4443458;32;20071;-74
2022/01/16 10:48:28;;;;;;;4.43;4.12;;;;;;;4.34;92.81;102068.06;4420432;32;20063;-76
2022/01/16 10:50:54;;;;;;;4.22;4.03;;;;;;;4.09;92.42;102039.59;4422284;32;20156;-73
2022/01/16 10:53:24;;;;;;;3.22;3.12;;;;;;;4.26;92.56;102067.25;4422505;32;20455;-75
2022/01/16 10:55:51;;;;;;;3.35;3.25;;;;;;;4.18;93.15;102065.50;4419114;32;20571;-74
2022/01/16 10:58:24;;;;;;;5.47;3.72;;;;;;;4.23;93.34;102070.72;4418222;32;20140;-75
2022/01/16 11:00:55;;;;;;;3.15;3.05;;;;;;;4.13;93.06;102040.41;4436155;32;20063;-73
2022/01/16 11:03:21;;;;;;;3.80;3.60;;;;;;;4.25;93.39;102065.50;4422788;32;20526;-74
2022/01/16 11:05:47;;;;;;;3.30;3.20;;;;;;;3.96;93.79;102015.38;4422568;32;20063;-74
2022/01/16 11:08:14;;;;;;;4.57;4.28;;;;;;;3.39;93.03;101905.69;4415126;32;20708;-76
2022/01/16 11:10:41;;;;;;;3.08;2.97;;;;;;;4.38;92.50;102073.22;4425881;32;20080;-75
2022/01/16 11:13:11;;;;;;;4.68;4.47;;;;;;;4.40;92.83;102081.03;4422944;32;20082;-73
2022/01/16 11:15:38;;;;;;;4.28;3.90;;;;;;;3.68;92.99;101952.28;4436983;32;20072;-75
2022/01/16 11:18:04;;;;;;;15.00;5.43;;;;;;;4.49;91.95;102086.22;4418727;32;20120;-74
2022/01/16 11:20:33;;;;;;;3.58;3.35;;;;;;;4.57;92.23;102089.62;4421923;32;20127;-75
2022/01/16 11:23:12;;;;;;;5.05;4.85;;;;;;;4.26;92.60;102098.41;4426788;32;20093;-73
2022/01/16 11:25:38;;;;;;;3.42;3.30;;;;;;;4.34;92.69;102092.31;4436058;32;20478;-77
2022/01/16 11:28:11;;;;;;;5.03;4.82;;;;;;;3.89;93.00;102005.00;4424616;32;20063;-73
2022/01/16 11:30:42;;;;;;;3.15;3.05;;;;;;;4.39;93.41;102069.78;4439762;32;21085;-73
2022/01/16 11:33:08;;;;;;;4.62;4.35;;;;;;;4.40;92.86;102084.50;4437945;32;20160;-76
2022/01/16 11:35:38;;;;;;;4.22;3.22;;;;;;;4.59;93.50;102097.41;4421911;32;20071;-74
2022/01/16 11:38:04;;;;;;;4.93;4.72;;;;;;;4.06;91.34;101987.62;4434358;32;20132;-73
2022/01/16 11:40:44;;;;;;;3.50;3.40;;;;;;;3.14;91.00;101843.47;4428337;32;20647;-75
2022/01/16 11:43:20;;;;;;;3.65;3.53;;;;;;;4.58;90.96;102086.12;4438221;32;20411;-76
2022/01/16 11:45:50;;;;;;;4.05;3.85;;;;;;;4.28;90.77;102009.19;4439470;32;20079;-76
2022/01/16 11:48:56;;;;;;;3.40;3.30;;;;;;;4.52;91.25;102018.59;4429180;32;20071;-77
2022/01/16 11:51:40;;;;;;;3.45;3.33;;;;;;;4.68;90.42;102079.16;4438273;32;20099;-75
2022/01/16 11:54:25;;;;;;;5.28;4.95;;;;;;;4.12;90.06;101945.19;4450162;32;20079;-74
2022/01/16 11:56:52;;;;;;;3.70;3.58;;;;;;;4.98;89.83;102067.69;4427454;32;20068;-75
2022/01/16 11:59:48;;;;;;;3.25;3.15;;;;;;;4.94;89.37;102013.97;4424616;32;20060;-76
2022/01/16 12:02:15;;;;;;;3.85;3.70;;;;;;;5.24;87.41;102084.88;4449445;32;20064;-74
2022/01/16 12:04:43;;;;;;;3.20;3.10;;;;;;;5.48;86.60;102082.94;4454420;32;20180;-75
2022/01/16 12:07:17;;;;;;;8.55;8.15;;;;;;;5.60;85.84;102080.22;4440002;32;20235;-76
2022/01/16 12:12:14;;;;;;;3.30;3.20;;;;;;;5.45;85.52;102089.03;4459850;32;20409;-73
2022/01/16 12:15:00;;;;;;;4.45;3.80;;;;;;;5.26;85.97;102051.88;4447181;32;20180;-73
2022/01/16 12:17:27;;;;;;;4.35;4.15;;;;;;;5.52;86.94;102095.91;4431402;32;20137;-72
2022/01/16 12:19:53;;;;;;;4.80;4.53;;;;;;;5.08;86.40;102049.44;4421653;32;20064;-72